createdAt,value
2022-12-04T00:00:27.639Z,65.42
2022-12-04T00:03:15.510Z,65.38
2022-12-04T00:06:12.517Z,65.52
2022-12-04T00:09:00.339Z,65.40
2022-12-04T00:11:48.277Z,65.47
2022-12-04T00:14:54.530Z,65.39
2022-12-04T00:17:48.252Z,65.57
2022-12-04T00:20:39.466Z,65.60
2022-12-04T00:23:27.206Z,65.64
2022-12-04T00:26:17.669Z,65.79
2022-12-04T00:29:05.478Z,65.64
2022-12-04T00:31:53.213Z,65.78
2022-12-04T00:34:41.033Z,65.77
2022-12-04T00:37:28.727Z,65.82
2022-12-04T00:40:16.517Z,65.81
2022-12-04T00:43:04.270Z,65.73
2022-12-04T00:45:52.258Z,66.00
2022-12-04T00:48:41.014Z,65.72
2022-12-04T00:51:29.033Z,66.04
2022-12-04T00:54:17.657Z,65.92
2022-12-04T00:57:05.347Z,65.73
2022-12-04T00:59:53.105Z,65.72
2022-12-04T01:02:41.015Z,65.66
2022-12-04T01:05:28.782Z,65.61
2022-12-04T01:08:16.623Z,65.79
2022-12-04T01:11:07.114Z,65.79
2022-12-04T01:13:55.322Z,65.92
2022-12-04T01:16:43.076Z,65.79
2022-12-04T01:19:30.676Z,65.84
2022-12-04T01:22:18.459Z,65.87
2022-12-04T01:25:07.299Z,65.94
2022-12-04T01:27:55.041Z,65.81
2022-12-04T01:30:42.721Z,65.83
2022-12-04T01:33:31.566Z,65.97
2022-12-04T01:36:23.198Z,65.68
2022-12-04T01:39:10.865Z,65.86
2022-12-04T01:41:59.144Z,65.60
2022-12-04T01:45:27.272Z,65.91
2022-12-04T01:48:37.885Z,65.83
2022-12-04T01:51:30.629Z,65.72
2022-12-04T01:54:37.369Z,65.86
2022-12-04T01:57:28.091Z,65.91
2022-12-04T02:00:18.021Z,66.07
2022-12-04T02:03:06.059Z,66.00
2022-12-04T02:05:53.859Z,66.09
2022-12-04T02:08:41.687Z,65.97
2022-12-04T02:11:39.056Z,65.96
2022-12-04T02:14:41.656Z,65.84
2022-12-04T02:17:38.137Z,65.83
2022-12-04T02:20:32.365Z,65.97
2022-12-04T02:23:41.146Z,66.09
2022-12-04T02:26:53.597Z,66.06
2022-12-04T02:29:55.901Z,66.13
2022-12-04T02:32:51.552Z,66.11
2022-12-04T02:36:00.758Z,66.10
2022-12-04T02:38:55.635Z,65.98
2022-12-04T02:41:55.510Z,66.00
2022-12-04T02:44:47.518Z,65.96
2022-12-04T02:47:38.086Z,65.86
2022-12-04T02:50:27.961Z,65.79
2022-12-04T02:53:20.003Z,66.09
2022-12-04T02:56:16.518Z,65.91
2022-12-04T02:59:12.841Z,66.16
2022-12-04T03:02:07.489Z,66.20
2022-12-04T03:04:57.770Z,66.21
2022-12-04T03:07:54.256Z,66.08
2022-12-04T03:10:46.309Z,66.29
2022-12-04T03:13:47.535Z,66.17
2022-12-04T03:16:41.685Z,66.28
2022-12-04T03:19:56.748Z,66.20
2022-12-04T03:22:49.635Z,66.05
2022-12-04T03:25:45.967Z,66.13
2022-12-04T03:28:38.858Z,66.18
2022-12-04T03:31:36.787Z,66.21
2022-12-04T03:34:34.930Z,66.23
2022-12-04T03:37:48.381Z,66.33
2022-12-04T03:40:49.480Z,66.41
2022-12-04T03:43:54.210Z,66.19
2022-12-04T03:46:51.425Z,66.29
2022-12-04T03:50:02.971Z,66.46
2022-12-04T03:53:09.650Z,66.47
2022-12-04T03:56:28.926Z,66.39
2022-12-04T03:59:24.830Z,66.66
2022-12-04T04:02:17.952Z,66.49
2022-12-04T04:05:08.890Z,66.55
2022-12-04T04:08:22.049Z,66.58
2022-12-04T04:11:12.466Z,66.76
2022-12-04T04:14:31.684Z,66.76
2022-12-04T04:17:43.350Z,66.51
2022-12-04T04:20:58.108Z,66.78
2022-12-04T04:24:09.357Z,66.73
2022-12-04T04:26:58.862Z,66.82
2022-12-04T04:29:52.097Z,66.65
2022-12-04T04:32:50.885Z,66.70
2022-12-04T04:36:02.888Z,66.69
2022-12-04T04:39:07.658Z,66.68
2022-12-04T04:42:25.134Z,66.50
2022-12-04T04:45:30.497Z,66.67
2022-12-04T04:48:33.219Z,66.72
2022-12-04T04:51:21.313Z,66.68
2022-12-04T04:54:11.975Z,66.51
2022-12-04T04:56:59.665Z,66.51
2022-12-04T04:59:47.334Z,66.59
2022-12-04T05:02:35.073Z,66.64
2022-12-04T05:05:22.781Z,66.48
2022-12-04T05:08:10.489Z,66.55
2022-12-04T05:10:58.293Z,66.64
2022-12-04T05:13:47.436Z,66.60
2022-12-04T05:16:35.451Z,66.31
2022-12-04T05:19:41.526Z,66.56
2022-12-04T05:22:32.016Z,66.45
2022-12-04T05:25:19.646Z,66.59
2022-12-04T05:28:07.298Z,66.84
2022-12-04T05:30:59.913Z,66.42
2022-12-04T05:33:47.614Z,66.50
2022-12-04T05:36:35.244Z,66.53
2022-12-04T05:39:22.820Z,66.53
2022-12-04T05:42:10.635Z,66.55
2022-12-04T05:44:58.344Z,66.49
2022-12-04T05:47:46.040Z,66.81
2022-12-04T05:50:33.668Z,66.63
2022-12-04T05:53:21.269Z,66.51
2022-12-04T05:56:09.139Z,66.57
2022-12-04T05:58:56.768Z,66.45
2022-12-04T06:01:45.091Z,66.40
2022-12-04T06:04:32.745Z,66.46
2022-12-04T06:07:20.377Z,66.33
2022-12-04T06:10:08.369Z,66.22
2022-12-04T06:12:57.762Z,66.09
2022-12-04T06:15:45.383Z,66.07
2022-12-04T06:18:32.981Z,65.93
2022-12-04T06:21:21.845Z,65.96
2022-12-04T06:24:13.899Z,65.75
2022-12-04T06:27:26.622Z,65.88
2022-12-04T06:30:09.636Z,65.68
2022-12-04T06:32:57.238Z,65.64
2022-12-04T06:35:44.847Z,65.57
2022-12-04T06:38:33.152Z,65.55
2022-12-04T06:41:34.642Z,65.30
2022-12-04T06:45:01.037Z,65.15
2022-12-04T06:48:23.044Z,65.45
2022-12-04T06:51:20.848Z,65.38
2022-12-04T06:54:09.770Z,65.29
2022-12-04T06:57:00.165Z,65.17
2022-12-04T06:59:50.650Z,65.28
2022-12-04T07:02:38.727Z,65.24
2022-12-04T07:05:27.875Z,65.08
2022-12-04T07:08:16.292Z,64.94
2022-12-04T07:11:04.308Z,64.95
2022-12-04T07:13:52.691Z,64.89
2022-12-04T07:16:42.374Z,64.86
2022-12-04T07:19:30.334Z,64.78
2022-12-04T07:22:18.052Z,64.87
2022-12-04T07:25:09.228Z,64.68
2022-12-04T07:28:09.199Z,64.63
2022-12-04T07:30:59.285Z,64.38
2022-12-04T07:33:50.852Z,64.35
2022-12-04T07:36:39.863Z,64.29
2022-12-04T07:39:28.529Z,64.17
2022-12-04T07:42:35.239Z,64.04
2022-12-04T07:45:23.225Z,64.51
2022-12-04T07:48:11.014Z,64.07
2022-12-04T07:51:11.635Z,63.74
2022-12-04T07:54:04.148Z,63.57
2022-12-04T07:57:01.612Z,63.73
2022-12-04T07:59:55.581Z,63.73
2022-12-04T08:02:53.104Z,64.07
2022-12-04T08:05:40.904Z,63.94
2022-12-04T08:08:28.830Z,63.84
2022-12-04T08:11:20.058Z,63.81
2022-12-04T08:14:11.157Z,63.71
2022-12-04T08:17:01.182Z,63.43
2022-12-04T08:19:49.078Z,63.50
2022-12-04T08:22:36.855Z,63.75
2022-12-04T08:25:25.497Z,63.83
2022-12-04T08:28:13.396Z,63.72
2022-12-04T08:31:06.768Z,63.61
2022-12-04T08:33:57.096Z,63.63
2022-12-04T08:36:56.513Z,63.28
2022-12-04T08:39:44.340Z,63.26
2022-12-04T08:42:32.635Z,63.03
2022-12-04T08:45:20.836Z,63.24
2022-12-04T08:48:08.623Z,63.22
2022-12-04T08:50:56.684Z,63.05
2022-12-04T08:53:46.319Z,62.98
2022-12-04T08:56:35.959Z,63.03
2022-12-04T08:59:50.836Z,63.15
2022-12-04T09:03:00.009Z,63.27
2022-12-04T09:05:48.512Z,63.06
2022-12-04T09:08:37.508Z,63.00
2022-12-04T09:11:28.221Z,63.04
2022-12-04T09:14:16.143Z,62.89
2022-12-04T09:17:04.171Z,62.83
2022-12-04T09:19:55.469Z,62.66
2022-12-04T09:23:03.304Z,62.81
2022-12-04T09:25:52.654Z,62.63
2022-12-04T09:28:40.621Z,62.60
2022-12-04T09:31:29.530Z,62.49
2022-12-04T09:34:17.658Z,62.21
2022-12-04T09:41:00.373Z,62.22
2022-12-04T09:44:16.422Z,61.93
2022-12-04T09:47:20.707Z,62.06
2022-12-04T09:50:26.027Z,62.01
2022-12-04T09:53:22.999Z,61.93
2022-12-04T09:56:14.538Z,62.13
2022-12-04T09:59:15.906Z,61.81
2022-12-04T10:02:22.551Z,61.23
2022-12-04T10:05:22.772Z,60.57
2022-12-04T10:08:28.731Z,60.28
2022-12-04T10:11:46.798Z,60.38
2022-12-04T10:14:57.012Z,59.41
2022-12-04T10:17:56.737Z,58.77
2022-12-04T10:21:12.118Z,58.76
2022-12-04T10:24:27.635Z,58.70
2022-12-04T10:27:28.543Z,59.60
2022-12-04T10:30:21.066Z,60.20
2022-12-04T10:33:33.154Z,60.25
2022-12-04T10:48:44.354Z,61.01
2022-12-04T10:51:39.522Z,60.88
2022-12-04T10:54:37.588Z,61.03
2022-12-04T10:57:39.246Z,61.11
2022-12-04T11:00:35.709Z,61.27
2022-12-04T11:50:24.203Z,61.64
2022-12-04T11:53:58.567Z,61.46
2022-12-04T12:01:43.553Z,61.60
2022-12-04T12:04:50.151Z,61.61
2022-12-04T12:08:40.028Z,61.61
2022-12-04T12:11:52.961Z,61.94
2022-12-04T12:15:07.059Z,61.83
2022-12-04T12:18:31.043Z,61.97
2022-12-04T12:22:05.359Z,62.14
2022-12-04T12:26:17.152Z,62.21
2022-12-04T12:29:26.555Z,62.29
2022-12-04T12:33:27.590Z,62.35
2022-12-04T12:37:19.949Z,62.50
2022-12-04T12:41:41.734Z,62.58
2022-12-04T12:50:30.513Z,62.73
2022-12-04T12:58:46.265Z,63.00
2022-12-04T13:02:29.515Z,63.09
2022-12-04T13:06:08.951Z,63.13
2022-12-04T13:09:12.647Z,63.15
2022-12-04T13:12:09.029Z,63.45
2022-12-04T13:14:57.604Z,63.59
2022-12-04T13:17:48.274Z,63.46
2022-12-04T13:20:46.876Z,63.74
2022-12-04T13:23:55.875Z,63.61
2022-12-04T13:26:49.829Z,63.54
2022-12-04T13:29:41.603Z,63.67
2022-12-04T13:32:47.952Z,63.46
2022-12-04T13:35:53.712Z,63.84
2022-12-04T13:39:18.111Z,63.87
2022-12-04T13:42:53.262Z,63.85
2022-12-04T13:46:05.797Z,63.84
2022-12-04T13:49:30.017Z,63.59
2022-12-04T13:52:40.268Z,63.63
2022-12-04T13:55:40.905Z,64.01
2022-12-04T13:58:35.026Z,64.08
2022-12-04T14:01:43.034Z,64.18
2022-12-04T14:04:52.867Z,64.31
2022-12-04T14:08:05.604Z,64.29
2022-12-04T14:11:18.657Z,64.24
2022-12-04T14:14:58.858Z,64.04
2022-12-04T14:18:11.438Z,64.05
2022-12-04T14:21:06.830Z,64.07
2022-12-04T14:23:54.477Z,64.17
2022-12-04T14:29:59.934Z,64.17
2022-12-04T14:32:50.566Z,64.14
2022-12-04T14:35:47.923Z,64.03
2022-12-04T14:38:36.016Z,64.21
2022-12-04T14:41:27.049Z,64.20
2022-12-04T14:44:27.709Z,64.15
2022-12-04T14:47:29.585Z,64.16
2022-12-04T14:50:37.520Z,64.13
2022-12-04T14:53:36.959Z,63.99
2022-12-04T14:56:36.669Z,64.12
2022-12-04T14:59:40.181Z,64.17
2022-12-04T15:02:35.000Z,64.12
2022-12-04T15:05:27.584Z,64.40
2022-12-04T15:08:15.413Z,64.20
2022-12-04T15:11:25.442Z,64.16
2022-12-04T15:14:14.008Z,64.26
2022-12-04T15:17:04.832Z,64.22
2022-12-04T15:19:52.467Z,64.23
2022-12-04T15:22:40.343Z,64.23
2022-12-04T15:25:34.973Z,64.20
2022-12-04T15:28:34.003Z,64.17
2022-12-04T15:31:53.465Z,64.02
2022-12-04T15:34:49.259Z,64.13
2022-12-04T15:37:37.226Z,64.04
2022-12-04T15:40:29.896Z,64.21
2022-12-04T15:43:22.563Z,64.09
2022-12-04T15:46:26.627Z,64.38
2022-12-04T15:49:19.393Z,64.00
2022-12-04T15:52:10.176Z,64.29
2022-12-04T15:55:01.731Z,64.17
2022-12-04T15:58:12.591Z,64.16
2022-12-04T16:01:19.983Z,64.22
2022-12-04T16:04:19.973Z,64.12
2022-12-04T16:07:21.620Z,64.17
2022-12-04T16:10:23.702Z,64.01
2022-12-04T16:13:28.313Z,64.10
2022-12-04T16:16:21.371Z,64.25
2022-12-04T16:19:30.342Z,64.23
2022-12-04T16:22:23.606Z,64.22
2022-12-04T16:25:12.705Z,64.16
2022-12-04T16:28:01.284Z,64.31
2022-12-04T16:30:51.615Z,64.23
2022-12-04T16:33:40.059Z,64.22
2022-12-04T16:36:27.672Z,64.25
2022-12-04T16:39:15.196Z,64.29
2022-12-04T16:42:02.761Z,64.26
2022-12-04T16:44:51.087Z,64.34
2022-12-04T16:47:38.669Z,64.34
2022-12-04T16:50:27.321Z,64.38
2022-12-04T16:53:20.323Z,64.35
2022-12-04T16:56:08.777Z,64.48
2022-12-04T16:58:56.342Z,64.48
2022-12-04T17:01:46.832Z,64.43
2022-12-04T17:04:34.531Z,64.44
2022-12-04T17:07:22.300Z,64.44
2022-12-04T17:10:09.996Z,64.57
2022-12-04T17:12:57.742Z,64.57
2022-12-04T17:15:45.588Z,64.42
2022-12-04T17:18:33.308Z,64.46
2022-12-04T17:21:20.955Z,64.54
2022-12-04T17:24:08.816Z,64.65
2022-12-04T17:26:56.538Z,64.71
2022-12-04T17:29:44.106Z,64.57
2022-12-04T17:32:32.537Z,64.65
2022-12-04T17:35:20.170Z,64.60
2022-12-04T17:38:07.836Z,64.60
2022-12-04T17:41:02.214Z,64.57
2022-12-04T17:43:50.331Z,64.61
2022-12-04T17:46:38.077Z,64.58
2022-12-04T17:49:25.699Z,64.64
2022-12-04T17:52:13.441Z,64.72
2022-12-04T17:55:01.081Z,64.75
2022-12-04T17:57:48.760Z,64.62
2022-12-04T18:00:37.093Z,64.79
2022-12-04T18:03:24.865Z,64.84
2022-12-04T18:06:21.533Z,64.59
2022-12-04T18:09:11.304Z,64.53
2022-12-04T18:12:01.553Z,64.75
2022-12-04T18:14:49.290Z,64.72
2022-12-04T18:17:37.158Z,64.63
2022-12-04T18:20:24.852Z,64.62
2022-12-04T18:23:13.799Z,64.53
2022-12-04T18:26:01.616Z,64.71
2022-12-04T18:28:49.704Z,64.60
2022-12-04T18:31:38.252Z,64.61
2022-12-04T18:34:26.182Z,64.54
2022-12-04T18:37:13.813Z,64.61
2022-12-04T18:40:06.285Z,64.69
2022-12-04T18:42:54.614Z,64.67
2022-12-04T18:45:44.940Z,64.60
2022-12-04T18:49:03.391Z,64.72
2022-12-04T18:51:51.023Z,64.82
2022-12-04T18:54:39.060Z,64.73
2022-12-04T18:57:26.658Z,64.68
2022-12-04T19:00:14.541Z,64.68
2022-12-04T19:03:04.582Z,64.67
2022-12-04T19:05:55.042Z,64.69
2022-12-04T19:08:45.790Z,64.75
2022-12-04T19:11:34.080Z,64.75
2022-12-04T19:14:23.680Z,64.71
2022-12-04T19:17:11.758Z,64.50
2022-12-04T19:19:59.568Z,64.68
2022-12-04T19:22:47.259Z,64.78
2022-12-04T19:25:34.993Z,64.68
2022-12-04T19:28:23.124Z,64.73
2022-12-04T19:31:18.679Z,64.78
2022-12-04T19:34:06.689Z,64.79
2022-12-04T19:36:56.618Z,64.75
2022-12-04T19:39:44.651Z,64.62
2022-12-04T19:42:32.351Z,64.85
2022-12-04T19:45:19.968Z,64.82
2022-12-04T19:48:07.518Z,64.68
2022-12-04T19:50:55.164Z,64.90
2022-12-04T19:53:43.536Z,64.88
2022-12-04T19:56:33.508Z,64.86
2022-12-04T19:59:21.180Z,64.80
2022-12-04T20:02:11.765Z,64.76
2022-12-04T20:04:59.388Z,64.88
2022-12-04T20:07:47.161Z,64.80
2022-12-04T20:10:35.848Z,64.95
2022-12-04T20:13:23.408Z,64.95
2022-12-04T20:16:13.525Z,64.81
2022-12-04T20:19:02.791Z,64.78
2022-12-04T20:21:56.110Z,64.90
2022-12-04T20:24:46.667Z,64.90
2022-12-04T20:27:34.236Z,65.00
2022-12-04T20:30:22.428Z,64.97
2022-12-04T20:33:10.052Z,64.99
2022-12-04T20:36:00.419Z,64.85
2022-12-04T20:38:49.417Z,64.99
2022-12-04T20:41:37.672Z,65.06
2022-12-04T20:44:25.216Z,65.06
2022-12-04T20:47:12.819Z,65.09
2022-12-04T20:50:00.413Z,65.22
2022-12-04T20:52:48.035Z,64.99
2022-12-04T20:55:35.659Z,65.12
2022-12-04T20:58:23.527Z,64.98
2022-12-04T21:01:13.537Z,65.14
2022-12-04T21:04:01.750Z,65.20
2022-12-04T21:06:49.565Z,65.08
2022-12-04T21:09:37.318Z,65.16
2022-12-04T21:12:43.551Z,65.21
2022-12-04T21:15:49.672Z,65.09
2022-12-04T21:18:37.252Z,65.22
2022-12-04T21:21:26.833Z,65.30
2022-12-04T21:24:16.813Z,65.26
2022-12-04T21:27:09.239Z,65.29
2022-12-04T21:29:57.723Z,65.16
2022-12-04T21:32:45.634Z,65.15
2022-12-04T21:35:33.223Z,65.33
2022-12-04T21:38:20.805Z,65.28
2022-12-04T21:41:09.561Z,65.28
2022-12-04T21:43:57.188Z,65.31
2022-12-04T21:46:45.538Z,65.40
2022-12-04T21:49:33.213Z,65.32
2022-12-04T21:52:21.823Z,65.39
2022-12-04T21:55:09.646Z,65.48
2022-12-04T21:57:57.169Z,65.38
2022-12-04T22:00:45.064Z,65.43
2022-12-04T22:03:32.620Z,65.39
2022-12-04T22:06:21.662Z,65.37
2022-12-04T22:09:10.833Z,65.46
2022-12-04T22:11:58.462Z,65.35
2022-12-04T22:14:46.272Z,65.48
2022-12-04T22:17:33.930Z,65.41
2022-12-04T22:20:22.799Z,65.35
2022-12-04T22:23:11.136Z,65.42
2022-12-04T22:26:14.430Z,65.30
2022-12-04T22:29:11.199Z,65.37
2022-12-04T22:32:10.172Z,65.48
2022-12-04T22:34:57.786Z,65.15
2022-12-04T22:37:46.072Z,65.40
2022-12-04T22:40:33.700Z,65.21
2022-12-04T22:43:21.350Z,65.28
2022-12-04T22:46:10.665Z,65.36
2022-12-04T22:48:59.333Z,65.55
2022-12-04T22:51:46.932Z,65.34
2022-12-04T22:54:34.639Z,65.26
2022-12-04T22:57:22.558Z,65.27
2022-12-04T23:00:10.690Z,65.28
2022-12-04T23:02:58.327Z,65.25
2022-12-04T23:05:46.008Z,65.39
2022-12-04T23:08:33.621Z,65.35
2022-12-04T23:11:22.244Z,65.27
2022-12-04T23:14:13.341Z,65.30
2022-12-04T23:17:01.281Z,65.30
2022-12-04T23:19:48.908Z,65.17
2022-12-04T23:22:36.642Z,65.26
2022-12-04T23:25:24.581Z,65.29
2022-12-04T23:28:12.202Z,65.20
2022-12-04T23:31:00.093Z,65.13
2022-12-04T23:33:47.804Z,65.16
2022-12-04T23:36:35.443Z,65.25
2022-12-04T23:39:23.121Z,65.04
2022-12-04T23:42:10.723Z,65.24
2022-12-04T23:44:58.382Z,65.15
2022-12-04T23:47:47.506Z,65.17
2022-12-04T23:50:35.736Z,65.21
2022-12-04T23:53:23.587Z,65.17
2022-12-04T23:56:24.136Z,65.33
2022-12-04T23:59:11.731Z,65.39
